Antwerp International Airport (Deurne)

EBAW · Antwerpen, Flanders, 比利时

罗盘
风向 的 风向 300° 安特衛普國際機場 11/29
风: 7 kt, 3 beaufort

7 kt

1 kt
改变
0 ft 1.000 2.000 3.000 4.000 5.000
Cloud Cloud Cloud Cloud
SCT 800
Cloud Cloud Cloud Cloud Cloud Cloud
BKN 1.200
METAR EBAW 211120Z 30007KT 5000 SHRA SCT008 BKN012 16/15 Q1013 NOSIG

METAR 安特衛普國際機場 - EBAW/ANR

安特衛普國際機場是,比利时中的中型机场。 该机场位于纬度51,19071和经度4,46310。 该机场有2条跑道: 11/29 和 11/29. 本场的ICAO机场代码为EBAW。 该机场的IATA代码为ANR。 机场在Bruxelles FIR中。

该航空气象观测是针对安特衛普國際機場在2024年6月21日 13:20, 当地时间进行的。

机场观察

风向为300°,速度为7 kt。

可见度为5 km。

有疏云,零星散落的云朵在800 ft的高度 和 碎云在1.200 ft的高度。 破损或更高的上限为1.200 ft。

当前天气为阵雨 雨。 温度和风寒是16 °C。 露点为15 °C,相对湿度为94%。 海平面上的气压为1013 hPa (QNH)。

白天

今天,太阳从05:26升起,在22:01降落。 这适用于安特衛普國際機場,世界夏令时可能有所不同。 当地时间与世界标准时间之间的时差为+2 小时。 夏令时目前正在进行中。

公司介绍

在这个机场,你可以找到飞行俱乐部 和 飞行学校。 这个机场上的公司有RAAC, Fly Aeolus Air Taxi, Aerosolutions 和 LindSky Aviation Training and Services。

体会

到Vliegles.nl去找飞行课程,跳伞和其他飞行体验。 浏览页面,了解安特衛普國際機場附近所有可用的活动。 你也可以使用搜索功能来寻找你所在地附近的特定飞行课程、跳伞或其他飞行体验。

跑道

Id 标题 侧风 逆风 侧风 %
11/29 110°-290° 1 kt 7 kt 17 %
11/29 111°-291° 1 kt 7 kt 16 %

逆风成分最大的方向会被突出显示,并用于横风计算。 这并不一定意味着这个方向在使用。

乌云

800 ft SCT 疏云,零星散落的云朵
1.200 ft BKN 碎云

温度 & 天气

天气 阵雨 雨
温度 16 °C
露点 15 °C
相对湿度 94%
Kp-index 0 (0-9)

白天

日出
05:26
中午
13:44
日落
22:01 (8:28)

小工具

你想在你的网站上有一个关于安特衛普國際機場的当前航空天气(METAR)的小部件吗?

显示HTML代码
报告变更